Terminal Aerodrome Forecast
Issued by NWS

Current Version | Previous Version | Graphics & Text | Print | Product List | Glossary On
Versions: 1 2 3 4 5 6 7 8 9 10 11 12 13 14 15 16 17 18 19 20 21 22 23 24
000
FTUS41 KRLX 180500
TAFCKB
TAF
KCKB 180540Z 1806/1906 29008KT P6SM OVC030
     FM181400 26005KT P6SM BKN070
     FM190400 26003KT P6SM BKN022=

USA.gov is the U.S. government's official web portal to all federal, state and local government web resources and services.